Time;durP1;ratioP1;P1;durP2;ratioP2;P2;SDS_P1;SDS_P2;PMS_P1;PMS_P2;Temp;Humidity;BMP_temperature;BMP_pressure;BME280_temperature;BME280_humidity;BME280_pressure;Samples;Min_cycle;Max_cycle;Signal;HPM_P1;HPM_P2
2024/01/14 00:01:22;;;;;;;1999.90;999.90;;;-0.30;99.90;;;;;;5073075;28;20472;-76
2024/01/14 00:03:48;;;;;;;1999.90;999.90;;;-0.30;99.90;;;;;;5073076;28;20033;-76
2024/01/14 00:06:13;;;;;;;1999.90;999.90;;;-0.30;99.90;;;;;;5073124;28;20025;-76
2024/01/14 00:08:39;;;;;;;1999.90;999.90;;;-0.30;99.90;;;;;;5072854;28;20029;-76
2024/01/14 00:11:07;;;;;;;1999.90;999.90;;;-0.30;99.90;;;;;;5076324;28;20403;-76
2024/01/14 00:13:33;;;;;;;1999.90;999.90;;;-0.20;99.90;;;;;;5082043;28;20501;-75
2024/01/14 00:15:59;;;;;;;1999.90;999.90;;;-0.20;99.90;;;;;;5072912;28;20064;-76
2024/01/14 00:18:25;;;;;;;1999.90;999.90;;;-0.20;99.90;;;;;;5072837;28;20078;-75
2024/01/14 00:20:50;;;;;;;1999.90;999.90;;;-0.20;99.90;;;;;;5073151;28;20036;-75
2024/01/14 00:23:16;;;;;;;1999.90;999.90;;;-0.20;99.90;;;;;;5073015;28;20027;-76
2024/01/14 00:25:42;;;;;;;1999.90;999.90;;;-0.20;99.90;;;;;;5072954;28;20094;-76
2024/01/14 00:28:07;;;;;;;1999.90;999.90;;;-0.20;99.90;;;;;;5072609;28;20523;-76
2024/01/14 00:30:33;;;;;;;1999.90;999.90;;;-0.20;99.90;;;;;;5072844;28;20043;-76
2024/01/14 00:32:59;;;;;;;1999.90;999.90;;;-0.20;99.90;;;;;;5072736;28;20020;-76
2024/01/14 00:35:25;;;;;;;1999.90;999.90;;;-0.20;99.90;;;;;;5072785;28;20074;-74
2024/01/14 00:37:51;;;;;;;1999.90;999.90;;;-0.20;99.90;;;;;;5072810;28;20021;-76
2024/01/14 00:40:17;;;;;;;1999.90;999.90;;;-0.20;99.90;;;;;;5072672;28;20463;-76
2024/01/14 00:42:42;;;;;;;1999.90;999.90;;;-0.10;99.90;;;;;;5072497;28;20046;-76
2024/01/14 00:45:08;;;;;;;1999.90;999.90;;;-0.10;99.90;;;;;;5054794;28;20033;-76
2024/01/14 00:47:34;;;;;;;1999.90;999.90;;;-0.20;99.90;;;;;;5074706;28;20419;-76
2024/01/14 00:49:59;;;;;;;1999.90;999.90;;;-0.10;99.90;;;;;;5076762;28;20020;-76
2024/01/14 00:52:25;;;;;;;1999.90;999.90;;;-0.20;99.90;;;;;;5077112;28;20040;-76
2024/01/14 00:54:51;;;;;;;1999.90;999.90;;;-0.10;99.90;;;;;;5076620;28;20036;-76
2024/01/14 00:57:17;;;;;;;1999.90;999.90;;;-0.10;99.90;;;;;;5077009;28;20031;-76
2024/01/14 00:59:43;;;;;;;1999.90;999.90;;;-0.10;99.90;;;;;;5075694;28;20031;-76
2024/01/14 01:02:09;;;;;;;1999.90;999.90;;;-0.10;99.90;;;;;;5076554;28;20021;-75
2024/01/14 01:04:34;;;;;;;1999.90;999.90;;;-0.10;99.90;;;;;;5076433;28;20110;-75
2024/01/14 01:07:00;;;;;;;1999.90;999.90;;;0.00;99.90;;;;;;5076542;28;20020;-76
2024/01/14 01:09:25;;;;;;;1999.90;999.90;;;0.00;99.90;;;;;;5076570;28;20445;-75
2024/01/14 01:11:51;;;;;;;1999.90;999.90;;;0.00;99.90;;;;;;5066375;28;20020;-76
2024/01/14 01:14:17;;;;;;;1999.90;999.90;;;0.00;99.90;;;;;;5079570;28;20107;-76
2024/01/14 01:16:42;;;;;;;1999.90;999.90;;;0.00;99.90;;;;;;5076686;28;20020;-75
2024/01/14 01:19:08;;;;;;;1999.90;999.90;;;0.00;99.90;;;;;;5076165;28;20028;-76
2024/01/14 01:21:33;;;;;;;1999.90;999.90;;;0.00;99.90;;;;;;5076229;28;20506;-75
2024/01/14 01:23:59;;;;;;;1999.90;999.90;;;0.10;99.90;;;;;;5076380;28;20059;-75
2024/01/14 01:26:24;;;;;;;1999.90;999.90;;;0.00;99.90;;;;;;5058034;28;20033;-76
2024/01/14 01:28:50;;;;;;;1999.90;999.90;;;0.00;99.90;;;;;;5057994;28;20055;-76
2024/01/14 01:31:16;;;;;;;1999.90;999.90;;;0.00;99.90;;;;;;5075926;28;20028;-74
2024/01/14 01:33:42;;;;;;;1999.90;999.90;;;0.00;99.90;;;;;;5055937;28;20048;-76
2024/01/14 01:36:08;;;;;;;1999.90;999.90;;;0.00;99.90;;;;;;5056088;28;20022;-76
2024/01/14 01:38:34;;;;;;;1999.90;999.90;;;0.00;99.90;;;;;;5056195;28;20122;-75
2024/01/14 01:40:59;;;;;;;1999.90;999.90;;;0.00;99.90;;;;;;5055838;28;20029;-76
2024/01/14 01:43:25;;;;;;;1999.90;999.90;;;0.10;99.90;;;;;;5055824;28;20033;-76
2024/01/14 01:45:55;;;;;;;1999.90;999.90;;;0.10;99.90;;;;;;5055769;28;20021;-74
2024/01/14 01:48:21;;;;;;;1999.90;999.90;;;0.10;99.90;;;;;;5037764;28;20033;-76
2024/01/14 01:50:47;;;;;;;1999.90;999.90;;;0.10;99.90;;;;;;5055746;28;20017;-74
2024/01/14 01:53:14;;;;;;;1999.90;999.90;;;0.10;99.90;;;;;;5056059;28;20037;-76
2024/01/14 01:55:39;;;;;;;1999.90;999.90;;;0.10;99.90;;;;;;5055536;28;20021;-75
2024/01/14 01:58:05;;;;;;;1999.90;999.90;;;0.10;99.90;;;;;;5055441;28;20025;-75
2024/01/14 02:00:34;;;;;;;1999.90;999.90;;;0.10;99.90;;;;;;5071897;28;20095;-76
2024/01/14 02:03:01;;;;;;;1999.90;999.90;;;0.20;99.90;;;;;;5075935;28;20383;-76
2024/01/14 02:05:30;;;;;;;1999.90;999.90;;;0.20;99.90;;;;;;5075468;28;20082;-75
2024/01/14 02:07:57;;;;;;;1999.90;999.90;;;0.20;99.90;;;;;;5075391;28;20035;-75
2024/01/14 02:10:23;;;;;;;1999.90;999.90;;;0.30;99.90;;;;;;5058303;28;20025;-74
2024/01/14 02:12:49;;;;;;;1999.90;999.90;;;0.30;99.90;;;;;;5086157;28;20032;-76
2024/01/14 02:15:15;;;;;;;1999.90;999.90;;;0.30;99.90;;;;;;5075224;28;20044;-75
2024/01/14 02:17:40;;;;;;;1999.90;999.90;;;0.30;99.90;;;;;;5075348;28;20548;-74
2024/01/14 02:20:08;;;;;;;1999.90;999.90;;;0.30;99.90;;;;;;5075032;28;20368;-75
2024/01/14 02:22:37;;;;;;;1999.90;999.90;;;0.30;99.90;;;;;;5074888;28;20483;-73
2024/01/14 02:25:04;;;;;;;1999.90;999.90;;;0.30;99.90;;;;;;5075045;28;20024;-76
2024/01/14 02:27:29;;;;;;;1999.90;999.90;;;0.30;99.90;;;;;;5074884;28;20105;-75
2024/01/14 02:29:56;;;;;;;1999.90;999.90;;;0.30;99.90;;;;;;5075325;28;20104;-74
2024/01/14 02:32:21;;;;;;;1999.90;999.90;;;0.40;99.90;;;;;;5074948;28;20086;-76
2024/01/14 02:34:48;;;;;;;1999.90;999.90;;;0.30;99.90;;;;;;5074871;28;20024;-76
2024/01/14 02:37:13;;;;;;;1999.90;999.90;;;0.30;99.90;;;;;;5073970;28;20051;-76
2024/01/14 02:39:39;;;;;;;1999.90;999.90;;;0.30;99.90;;;;;;5074597;28;20372;-74
2024/01/14 02:42:05;;;;;;;1999.90;999.90;;;0.30;99.90;;;;;;5074775;28;20040;-76
2024/01/14 02:44:30;;;;;;;1999.90;999.90;;;0.30;99.90;;;;;;5074654;28;20063;-74
2024/01/14 02:46:56;;;;;;;1999.90;999.90;;;0.30;99.90;;;;;;5074465;28;20480;-76
2024/01/14 02:49:22;;;;;;;1999.90;999.90;;;0.30;99.90;;;;;;5056798;28;20168;-75
2024/01/14 02:51:47;;;;;;;1999.90;999.90;;;0.40;99.90;;;;;;5074578;28;20461;-75
2024/01/14 02:54:13;;;;;;;1999.90;999.90;;;0.40;99.90;;;;;;5074806;28;20024;-75
2024/01/14 02:56:38;;;;;;;1999.90;999.90;;;0.40;99.90;;;;;;5074428;28;20506;-73
2024/01/14 02:59:04;;;;;;;1999.90;999.90;;;0.40;99.90;;;;;;5056198;28;20029;-74
2024/01/14 03:01:30;;;;;;;1999.90;999.90;;;0.40;99.90;;;;;;5074229;28;20028;-74
2024/01/14 03:03:56;;;;;;;1999.90;999.90;;;0.40;99.90;;;;;;5074144;28;20059;-76
2024/01/14 03:06:22;;;;;;;1999.90;999.90;;;0.40;99.90;;;;;;5073418;28;20040;-76
2024/01/14 03:08:47;;;;;;;1999.90;999.90;;;0.40;99.90;;;;;;5074093;28;20108;-75
2024/01/14 03:11:13;;;;;;;1999.90;999.90;;;0.40;99.90;;;;;;5077147;28;20032;-76
2024/01/14 03:13:39;;;;;;;1999.90;999.90;;;0.40;99.90;;;;;;5064445;28;20483;-75
2024/01/14 03:16:05;;;;;;;1999.90;999.90;;;0.40;99.90;;;;;;5074056;28;20042;-76
2024/01/14 03:18:31;;;;;;;1999.90;999.90;;;0.40;99.90;;;;;;5074067;28;20033;-74
2024/01/14 03:20:57;;;;;;;1999.90;999.90;;;0.40;99.90;;;;;;5074013;28;20044;-75
2024/01/14 03:23:22;;;;;;;1999.90;999.90;;;0.40;99.90;;;;;;5073683;28;20127;-76
2024/01/14 03:25:48;;;;;;;1999.90;999.90;;;0.40;99.90;;;;;;5073839;28;20082;-76
2024/01/14 03:28:14;;;;;;;1999.90;999.90;;;0.50;99.90;;;;;;5073621;28;20021;-76
2024/01/14 03:30:40;;;;;;;1999.90;999.90;;;0.50;99.90;;;;;;5055745;28;20024;-76
2024/01/14 03:33:05;;;;;;;1999.90;999.90;;;0.50;99.90;;;;;;5073959;28;20020;-73
2024/01/14 03:35:31;;;;;;;1999.90;999.90;;;0.50;99.90;;;;;;5073900;28;20056;-76
2024/01/14 03:37:56;;;;;;;1999.90;999.90;;;0.50;99.90;;;;;;5073798;28;20078;-76
2024/01/14 03:40:22;;;;;;;1999.90;999.90;;;0.50;99.90;;;;;;5073713;28;20794;-75
2024/01/14 03:42:47;;;;;;;1999.90;999.90;;;0.70;99.90;;;;;;5073360;28;20029;-76
2024/01/14 03:45:13;;;;;;;1999.90;999.90;;;0.60;99.90;;;;;;5073377;28;20494;-76
2024/01/14 03:47:39;;;;;;;1999.90;999.90;;;0.60;99.90;;;;;;5073319;28;20070;-76
2024/01/14 03:50:05;;;;;;;1999.90;999.90;;;0.50;99.90;;;;;;5073667;28;20036;-76
2024/01/14 03:52:30;;;;;;;1999.90;999.90;;;0.50;99.90;;;;;;5073363;28;20020;-74
2024/01/14 03:54:56;;;;;;;1999.90;999.90;;;0.50;99.90;;;;;;5073488;28;20052;-76
2024/01/14 03:57:21;;;;;;;1999.90;999.90;;;0.60;99.90;;;;;;5073147;28;20082;-75
2024/01/14 03:59:47;;;;;;;1999.90;999.90;;;0.60;99.90;;;;;;5061845;28;20098;-76
2024/01/14 04:02:13;;;;;;;1999.90;999.90;;;0.50;99.90;;;;;;5067256;28;20114;-76
2024/01/14 04:04:38;;;;;;;1999.90;999.90;;;0.60;99.90;;;;;;5054999;28;20404;-74
2024/01/14 04:07:04;;;;;;;1999.90;999.90;;;0.50;99.90;;;;;;5072986;28;20038;-76
2024/01/14 04:09:29;;;;;;;1999.90;999.90;;;0.50;99.90;;;;;;5055149;28;20025;-76
2024/01/14 04:11:55;;;;;;;1999.90;999.90;;;0.50;99.90;;;;;;5079455;28;20035;-76
2024/01/14 04:14:21;;;;;;;1999.90;999.90;;;0.40;99.90;;;;;;5089121;28;20403;-75
2024/01/14 04:16:46;;;;;;;1999.90;999.90;;;0.40;99.90;;;;;;5093409;28;20023;-76
2024/01/14 04:19:12;;;;;;;1999.90;999.90;;;0.50;99.90;;;;;;5093297;28;20035;-76
2024/01/14 04:21:37;;;;;;;1999.90;999.90;;;0.50;99.90;;;;;;5092663;28;20115;-76
2024/01/14 04:24:03;;;;;;;1999.90;999.90;;;0.60;99.90;;;;;;5093027;28;20020;-76
2024/01/14 04:26:29;;;;;;;1999.90;999.90;;;0.60;99.90;;;;;;5079031;28;20063;-76
2024/01/14 04:28:55;;;;;;;1999.90;999.90;;;0.60;99.90;;;;;;5072830;28;20073;-76
2024/01/14 04:31:21;;;;;;;1999.90;999.90;;;0.70;99.90;;;;;;5054811;28;20032;-75
2024/01/14 04:33:47;;;;;;;1999.90;999.90;;;0.60;99.90;;;;;;5073100;28;20043;-76
2024/01/14 04:36:14;;;;;;;1999.90;999.90;;;0.70;99.90;;;;;;5072880;28;20031;-76
2024/01/14 04:38:40;;;;;;;1999.90;999.90;;;0.70;99.90;;;;;;5072633;28;20048;-76
2024/01/14 04:41:06;;;;;;;1999.90;999.90;;;0.60;99.90;;;;;;5073241;28;20130;-74
2024/01/14 04:43:31;;;;;;;1999.90;999.90;;;0.70;99.90;;;;;;5072736;28;20035;-76
2024/01/14 04:45:57;;;;;;;1999.90;999.90;;;0.60;99.90;;;;;;5073168;28;20032;-76
2024/01/14 04:48:22;;;;;;;1999.90;999.90;;;0.60;99.90;;;;;;5072570;28;20028;-75
2024/01/14 04:50:49;;;;;;;1999.90;999.90;;;0.60;99.90;;;;;;5072606;28;20078;-76
2024/01/14 04:53:15;;;;;;;1999.90;999.90;;;0.60;99.90;;;;;;5072845;28;20020;-76
2024/01/14 04:55:40;;;;;;;1999.90;999.90;;;0.60;99.90;;;;;;5072524;28;20021;-76
2024/01/14 04:58:06;;;;;;;1999.90;999.90;;;0.70;99.90;;;;;;5054689;28;20028;-76
2024/01/14 05:00:32;;;;;;;1999.90;999.90;;;0.60;99.90;;;;;;5072463;28;20025;-76
2024/01/14 05:02:57;;;;;;;1999.90;999.90;;;0.60;99.90;;;;;;5072498;28;20197;-76
2024/01/14 05:05:23;;;;;;;1999.90;999.90;;;0.60;99.90;;;;;;5072661;28;20063;-76
2024/01/14 05:07:49;;;;;;;1999.90;999.90;;;0.50;99.90;;;;;;5072505;28;20116;-74
2024/01/14 05:10:14;;;;;;;1999.90;999.90;;;0.50;99.90;;;;;;5072840;28;20020;-76
2024/01/14 05:12:40;;;;;;;1999.90;999.90;;;0.50;99.90;;;;;;5083920;28;20398;-74
2024/01/14 05:15:06;;;;;;;1999.90;999.90;;;0.50;99.90;;;;;;5072453;28;20063;-74
2024/01/14 05:17:32;;;;;;;1999.90;999.90;;;0.50;99.90;;;;;;5072758;28;20490;-76
2024/01/14 05:19:57;;;;;;;1999.90;999.90;;;0.50;99.90;;;;;;5072604;28;20514;-74
2024/01/14 05:22:23;;;;;;;1999.90;999.90;;;0.50;99.90;;;;;;5072466;28;20070;-76
2024/01/14 05:24:52;;;;;;;1999.90;999.90;;;0.50;99.90;;;;;;5078372;28;20489;-75
2024/01/14 05:27:17;;;;;;;1999.90;999.90;;;0.60;99.90;;;;;;5075773;28;20031;-76
2024/01/14 05:29:44;;;;;;;1999.90;999.90;;;0.60;99.90;;;;;;5071759;28;20024;-74
2024/01/14 05:32:16;;;;;;;1999.90;999.90;;;0.60;99.90;;;;;;5054285;28;20032;-74
2024/01/14 05:34:44;;;;;;;1999.90;999.90;;;0.70;99.90;;;;;;5057917;28;20390;-74
2024/01/14 05:37:10;;;;;;;1999.90;999.90;;;0.80;99.90;;;;;;5058092;28;20079;-74
2024/01/14 05:39:36;;;;;;;1999.90;999.90;;;0.70;99.90;;;;;;5076122;28;20025;-77
2024/01/14 05:42:02;;;;;;;1999.90;999.90;;;0.80;99.90;;;;;;5075971;28;20066;-76
2024/01/14 05:44:28;;;;;;;1999.90;999.90;;;0.70;99.90;;;;;;5075166;28;20036;-76
2024/01/14 05:46:54;;;;;;;1999.90;999.90;;;0.80;99.90;;;;;;5075830;28;20391;-74
2024/01/14 05:49:20;;;;;;;1999.90;999.90;;;0.80;99.90;;;;;;5075694;28;20028;-75
2024/01/14 05:51:46;;;;;;;1999.90;999.90;;;0.80;99.90;;;;;;5075911;28;20021;-76
2024/01/14 05:54:12;;;;;;;1999.90;999.90;;;0.80;99.90;;;;;;5075282;28;20024;-76
2024/01/14 05:56:38;;;;;;;1999.90;999.90;;;0.90;99.90;;;;;;5075589;28;20519;-76
2024/01/14 05:59:03;;;;;;;1999.90;999.90;;;0.80;99.90;;;;;;5057581;28;20029;-74
2024/01/14 06:01:29;;;;;;;1999.90;999.90;;;0.90;99.90;;;;;;5075328;28;20074;-75
2024/01/14 06:03:56;;;;;;;1999.90;999.90;;;0.90;99.90;;;;;;5074942;28;20499;-76
2024/01/14 06:06:21;;;;;;;1999.90;999.90;;;0.80;99.90;;;;;;5057522;28;20031;-74
2024/01/14 06:08:47;;;;;;;1999.90;999.90;;;0.90;99.90;;;;;;5075189;28;20024;-76
2024/01/14 06:11:13;;;;;;;1999.90;999.90;;;0.80;99.90;;;;;;5078867;28;20029;-74
2024/01/14 06:13:42;;;;;;;1999.90;999.90;;;0.80;99.90;;;;;;5084224;28;20099;-76
2024/01/14 06:16:08;;;;;;;1999.90;999.90;;;0.90;99.90;;;;;;5075502;28;20031;-76
2024/01/14 06:18:34;;;;;;;1999.90;999.90;;;0.90;99.90;;;;;;5079119;28;20395;-76
2024/01/14 06:21:02;;;;;;;1999.90;999.90;;;0.90;99.90;;;;;;5083400;28;20107;-75
2024/01/14 06:23:29;;;;;;;1999.90;999.90;;;0.90;99.90;;;;;;5075314;28;20036;-74
2024/01/14 06:25:55;;;;;;;1999.90;999.90;;;0.90;99.90;;;;;;5075191;28;20548;-74
2024/01/14 06:28:21;;;;;;;1999.90;999.90;;;0.90;99.90;;;;;;5074583;28;20021;-76
2024/01/14 06:30:46;;;;;;;1999.90;999.90;;;0.90;99.90;;;;;;5075288;28;20051;-75
2024/01/14 06:33:12;;;;;;;1999.90;999.90;;;0.90;99.90;;;;;;5074654;28;20380;-76
2024/01/14 06:35:38;;;;;;;1999.90;999.90;;;0.80;99.90;;;;;;5075073;28;20039;-76
2024/01/14 06:38:03;;;;;;;1999.90;999.90;;;0.70;99.90;;;;;;5074974;28;20021;-76
2024/01/14 06:40:29;;;;;;;1999.90;999.90;;;0.70;99.90;;;;;;5056838;28;20036;-76
2024/01/14 06:42:55;;;;;;;1999.90;999.90;;;0.80;99.90;;;;;;5056309;28;20490;-74
2024/01/14 06:45:21;;;;;;;1999.90;999.90;;;0.70;99.90;;;;;;5073758;28;20387;-76
2024/01/14 06:47:46;;;;;;;1999.90;999.90;;;0.70;99.90;;;;;;5074682;28;20027;-76
2024/01/14 06:50:13;;;;;;;1999.90;999.90;;;0.70;99.90;;;;;;5074689;28;20021;-74
2024/01/14 06:52:39;;;;;;;1999.90;999.90;;;0.60;99.90;;;;;;5074622;28;20464;-76
2024/01/14 06:55:05;;;;;;;1999.90;999.90;;;0.60;99.90;;;;;;5074620;28;20048;-74
2024/01/14 06:57:31;;;;;;;1999.90;999.90;;;0.50;99.90;;;;;;5074564;28;20052;-76
2024/01/14 07:00:04;;;;;;;1999.90;999.90;;;0.50;99.90;;;;;;5073578;28;20528;-74
2024/01/14 07:02:30;;;;;;;;;;;0.40;99.90;;;;;;5075103;28;20025;-74
2024/01/14 07:04:56;;;;;;;1999.90;999.90;;;0.40;99.90;;;;;;5074247;28;19924;-74
2024/01/14 07:07:22;;;;;;;1999.90;999.90;;;0.40;99.90;;;;;;5074352;28;20035;-74
2024/01/14 07:09:48;;;;;;;1999.90;999.90;;;0.30;99.90;;;;;;5074289;28;20387;-74
2024/01/14 07:12:14;;;;;;;1999.90;999.90;;;0.30;99.90;;;;;;5084420;28;20055;-76
2024/01/14 07:14:39;;;;;;;1999.90;999.90;;;0.30;99.90;;;;;;5075911;28;20418;-74
2024/01/14 07:17:05;;;;;;;1999.90;999.90;;;0.20;99.90;;;;;;5074502;28;20028;-76
2024/01/14 07:19:31;;;;;;;1999.90;999.90;;;0.20;99.90;;;;;;5074021;28;20025;-76
2024/01/14 07:21:56;;;;;;;1999.90;999.90;;;0.20;99.90;;;;;;5073957;28;20033;-74
2024/01/14 07:24:22;;;;;;;1999.90;999.90;;;0.10;99.90;;;;;;5077272;28;20024;-76
2024/01/14 07:26:48;;;;;;;1999.90;999.90;;;0.00;99.90;;;;;;5061164;28;20025;-74
2024/01/14 07:29:13;;;;;;;1999.90;999.90;;;0.00;99.90;;;;;;5073920;28;20035;-74
2024/01/14 07:31:39;;;;;;;1999.90;999.90;;;0.00;99.90;;;;;;5073921;28;20048;-74
2024/01/14 07:34:05;;;;;;;1999.90;999.90;;;0.00;99.90;;;;;;5073866;28;20029;-74
2024/01/14 07:36:31;;;;;;;1999.90;999.90;;;-0.10;99.90;;;;;;5073749;28;20415;-76
2024/01/14 07:38:58;;;;;;;1999.90;999.90;;;-0.10;99.90;;;;;;5073853;28;20016;-77
2024/01/14 07:41:26;;;;;;;1999.90;999.90;;;-0.10;99.90;;;;;;5073866;28;20037;-76
2024/01/14 07:43:52;;;;;;;1999.90;999.90;;;-0.10;99.90;;;;;;5073373;28;20020;-74
2024/01/14 07:46:18;;;;;;;1999.90;999.90;;;-0.10;99.90;;;;;;5073451;28;20115;-74
2024/01/14 07:48:44;;;;;;;1999.90;999.90;;;-0.10;99.90;;;;;;5073431;28;20025;-74
2024/01/14 07:51:10;;;;;;;1999.90;999.90;;;0.00;99.90;;;;;;5073702;28;20371;-76
2024/01/14 07:53:36;;;;;;;1999.90;999.90;;;0.00;99.90;;;;;;5055780;28;20052;-76
2024/01/14 07:56:03;;;;;;;1999.90;999.90;;;0.10;99.90;;;;;;5073148;28;20021;-74
2024/01/14 07:58:28;;;;;;;1999.90;999.90;;;0.20;99.90;;;;;;5073631;28;20028;-76
2024/01/14 08:00:54;;;;;;;1999.90;999.90;;;0.20;99.90;;;;;;5072676;28;20518;-76
2024/01/14 08:03:19;;;;;;;1999.90;999.90;;;0.20;99.90;;;;;;5055823;28;20038;-76
2024/01/14 08:05:46;;;;;;;1999.90;999.90;;;0.20;99.90;;;;;;5073264;28;20057;-76
2024/01/14 08:08:12;;;;;;;1999.90;999.90;;;0.20;99.90;;;;;;5072896;28;20024;-76
2024/01/14 08:10:38;;;;;;;1999.90;999.90;;;0.20;99.90;;;;;;5074568;28;20047;-74
2024/01/14 08:13:04;;;;;;;1999.90;999.90;;;0.20;99.90;;;;;;5066745;28;20395;-74
2024/01/14 08:15:30;;;;;;;1999.90;999.90;;;0.20;99.90;;;;;;5073028;28;20021;-76
2024/01/14 08:17:56;;;;;;;1999.90;999.90;;;0.20;99.90;;;;;;5073377;28;20440;-76
2024/01/14 08:20:21;;;;;;;1999.90;999.90;;;0.30;99.90;;;;;;5072850;28;20029;-76
2024/01/14 08:22:47;;;;;;;1999.90;999.90;;;0.40;99.90;;;;;;5073005;28;20391;-74
2024/01/14 08:25:13;;;;;;;1999.90;999.90;;;0.50;99.90;;;;;;5072971;28;20031;-77
2024/01/14 08:27:40;;;;;;;1999.90;999.90;;;0.60;99.90;;;;;;5072979;28;20411;-74
2024/01/14 08:30:07;;;;;;;1999.90;999.90;;;0.70;99.90;;;;;;5072996;28;20025;-76
2024/01/14 08:32:32;;;;;;;1999.90;999.90;;;0.80;99.90;;;;;;5072906;28;20044;-76
2024/01/14 08:34:58;;;;;;;1999.90;999.90;;;0.90;99.90;;;;;;5073120;28;20048;-74
2024/01/14 08:37:27;;;;;;;1999.90;999.90;;;0.90;99.90;;;;;;5055016;28;20082;-74
2024/01/14 08:39:53;;;;;;;1999.90;999.90;;;1.00;99.90;;;;;;5072715;28;20035;-74
2024/01/14 08:42:18;;;;;;;1999.90;999.90;;;0.90;99.90;;;;;;5072868;28;20028;-76
2024/01/14 08:44:44;;;;;;;1999.90;999.90;;;0.90;99.90;;;;;;5072789;28;20028;-74
2024/01/14 08:47:10;;;;;;;1999.90;999.90;;;1.00;99.90;;;;;;5072904;28;20032;-74
2024/01/14 08:49:35;;;;;;;1999.90;999.90;;;1.00;99.90;;;;;;5072885;28;20017;-74
2024/01/14 08:52:01;;;;;;;1999.90;999.90;;;1.40;99.90;;;;;;5072827;28;20028;-74
2024/01/14 08:54:31;;;;;;;1999.90;999.90;;;1.70;99.90;;;;;;5072841;28;20411;-74
2024/01/14 08:56:56;;;;;;;1999.90;999.90;;;1.80;99.90;;;;;;5072467;28;20065;-74
2024/01/14 08:59:22;;;;;;;1999.90;999.90;;;1.80;99.90;;;;;;5072649;28;20379;-74
2024/01/14 09:01:48;;;;;;;1999.90;999.90;;;1.90;99.90;;;;;;5072288;28;20524;-74
2024/01/14 09:04:13;;;;;;;1999.90;999.90;;;1.90;99.90;;;;;;5079016;28;20056;-76
2024/01/14 09:06:40;;;;;;;1999.90;999.90;;;1.90;99.90;;;;;;5058707;28;20047;-74
2024/01/14 09:09:06;;;;;;;1999.90;999.90;;;1.90;99.90;;;;;;5075273;28;20032;-74
2024/01/14 09:11:33;;;;;;;1999.90;999.90;;;1.80;99.90;;;;;;5080600;28;20016;-76
2024/01/14 09:13:58;;;;;;;1999.90;999.90;;;2.00;99.90;;;;;;5084361;28;20058;-74
2024/01/14 09:16:24;;;;;;;1999.90;999.90;;;2.00;99.90;;;;;;5076337;28;20056;-76
2024/01/14 09:18:50;;;;;;;1999.90;999.90;;;1.90;99.90;;;;;;5076289;28;20082;-74
2024/01/14 09:21:15;;;;;;;1999.90;999.90;;;1.90;99.90;;;;;;5076255;28;20086;-76
2024/01/14 09:23:41;;;;;;;1999.90;999.90;;;1.90;99.90;;;;;;5076458;28;20033;-74
2024/01/14 09:26:07;;;;;;;1999.90;999.90;;;2.10;99.90;;;;;;5076046;28;20028;-74
2024/01/14 09:28:34;;;;;;;1999.90;999.90;;;2.00;99.90;;;;;;5082066;28;20395;-76
2024/01/14 09:31:00;;;;;;;1999.90;999.90;;;2.00;99.90;;;;;;5064050;28;20060;-74
2024/01/14 09:33:26;;;;;;;1999.90;999.90;;;2.30;99.90;;;;;;5058123;28;20052;-76
2024/01/14 09:35:51;;;;;;;1999.90;999.90;;;2.30;99.90;;;;;;5076194;28;20100;-74
2024/01/14 09:38:17;;;;;;;1999.90;999.90;;;2.30;99.90;;;;;;5076126;28;20029;-76
2024/01/14 09:40:43;;;;;;;1999.90;999.90;;;2.30;99.90;;;;;;5075931;28;20403;-74
2024/01/14 09:43:13;;;;;;;1999.90;999.90;;;2.40;99.90;;;;;;5076325;28;20059;-74
2024/01/14 09:45:40;;;;;;;1999.90;999.90;;;2.80;99.90;;;;;;5075759;28;20111;-74
2024/01/14 09:48:08;;;;;;;1999.90;999.90;;;3.00;99.90;;;;;;5057779;28;20028;-76
2024/01/14 09:50:35;;;;;;;1999.90;999.90;;;3.30;99.90;;;;;;5076049;28;20491;-74
2024/01/14 09:53:04;;;;;;;1999.90;999.90;;;3.40;99.90;;;;;;5075989;28;20491;-74
2024/01/14 09:55:30;;;;;;;1999.90;999.90;;;3.40;99.90;;;;;;5075890;28;20142;-74
2024/01/14 09:57:58;;;;;;;1999.90;999.90;;;3.30;99.90;;;;;;5075710;28;20056;-74
2024/01/14 10:00:24;;;;;;;1999.90;999.90;;;3.10;99.90;;;;;;5074460;28;20031;-74
2024/01/14 10:02:49;;;;;;;1999.90;999.90;;;3.20;99.90;;;;;;5075622;28;20391;-74
2024/01/14 10:05:16;;;;;;;1999.90;999.90;;;3.30;99.90;;;;;;5057303;28;20060;-76
2024/01/14 10:07:44;;;;;;;1999.90;999.90;;;3.50;99.90;;;;;;5075376;28;20119;-74
2024/01/14 10:10:10;;;;;;;1999.90;999.90;;;3.40;99.90;;;;;;5057831;28;20459;-76
2024/01/14 10:12:37;;;;;;;1999.90;999.90;;;3.30;99.90;;;;;;5085587;28;20036;-76
2024/01/14 10:15:04;;;;;;;1999.90;999.90;;;3.30;99.90;;;;;;5075551;28;20052;-76
2024/01/14 10:17:31;;;;;;;1999.90;999.90;;;3.30;99.90;;;;;;5075371;28;20107;-76
2024/01/14 10:20:00;;;;;;;1999.90;999.90;;;3.30;99.90;;;;;;5073844;28;20052;-74
2024/01/14 10:22:26;;;;;;;1999.90;999.90;;;3.40;99.90;;;;;;5073863;28;20111;-74
2024/01/14 10:24:53;;;;;;;1999.90;999.90;;;3.40;99.90;;;;;;5075105;28;20138;-74
2024/01/14 10:27:24;;;;;;;1999.90;999.90;;;3.40;99.90;;;;;;5075187;28;20048;-76
2024/01/14 10:29:50;;;;;;;1999.90;999.90;;;3.50;99.90;;;;;;5075366;28;20020;-76
2024/01/14 10:32:17;;;;;;;1999.90;999.90;;;3.50;99.90;;;;;;5074978;28;20074;-75
2024/01/14 10:34:44;;;;;;;1999.90;999.90;;;3.50;99.90;;;;;;5075312;28;20012;-74
2024/01/14 10:37:12;;;;;;;1999.90;999.90;;;3.90;99.90;;;;;;5075030;28;20107;-74
2024/01/14 10:39:38;;;;;;;1999.90;999.90;;;4.10;99.90;;;;;;5075128;28;20532;-75
2024/01/14 10:42:04;;;;;;;1999.90;999.90;;;4.10;99.90;;;;;;5057020;28;20020;-74
2024/01/14 10:44:31;;;;;;;1999.90;999.90;;;3.90;99.90;;;;;;5074791;28;20510;-74
2024/01/14 10:47:01;;;;;;;1999.90;999.90;;;4.10;99.90;;;;;;5074953;28;20039;-74
2024/01/14 10:49:27;;;;;;;1999.90;999.90;;;4.00;99.90;;;;;;5074636;28;20074;-75
2024/01/14 10:52:12;;;;;;;1999.90;999.90;;;4.20;99.90;;;;;;5074850;28;20475;-75
2024/01/14 10:54:55;;;;;;;1999.90;999.90;;;4.10;99.90;;;;;;5074803;28;20042;-74
2024/01/14 10:57:36;;;;;;;1999.90;999.90;;;4.20;99.90;;;;;;5074490;28;20055;-75
2024/01/14 11:00:07;;;;;;;1999.90;999.90;;;4.40;99.90;;;;;;5074320;28;20025;-75
2024/01/14 11:02:35;;;;;;;1999.90;999.90;;;4.60;99.90;;;;;;5074478;28;20028;-75
2024/01/14 11:05:08;;;;;;;1999.90;999.90;;;4.80;99.90;;;;;;5074269;28;20161;-75
2024/01/14 11:07:34;;;;;;;1999.90;999.90;;;5.00;99.90;;;;;;5074363;28;20040;-75
2024/01/14 11:10:05;;;;;;;1999.90;999.90;;;5.10;99.90;;;;;;5074161;28;20395;-75
2024/01/14 11:13:08;;;;;;;1999.90;999.90;;;5.20;99.90;;;;;;5086350;28;20123;-75
2024/01/14 11:16:03;;;;;;;1999.90;999.90;;;5.30;99.90;;;;;;5054068;28;20017;-75
2024/01/14 11:19:05;;;;;;;1999.90;999.90;;;5.40;99.90;;;;;;5054079;28;20262;-75
2024/01/14 11:21:56;;;;;;;1999.90;999.90;;;5.40;99.90;;;;;;5054206;28;20060;-75
2024/01/14 11:24:25;;;;;;;1999.90;999.90;;;5.40;99.90;;;;;;5053821;28;20041;-76
2024/01/14 11:26:51;;;;;;;1999.90;999.90;;;5.30;99.90;;;;;;5070253;28;20498;-76
2024/01/14 11:29:39;;;;;;;1999.90;999.90;;;5.20;99.90;;;;;;5055047;28;20025;-76
2024/01/14 11:32:08;;;;;;;1999.90;999.90;;;5.30;99.90;;;;;;5073527;28;20535;-75
2024/01/14 11:34:54;;;;;;;1999.90;999.90;;;5.30;99.90;;;;;;5073947;28;20212;-75
2024/01/14 11:37:29;;;;;;;1999.90;999.90;;;5.20;99.90;;;;;;5073835;28;20025;-75
2024/01/14 11:40:07;;;;;;;1999.90;999.90;;;5.10;99.90;;;;;;5073962;28;20395;-75
2024/01/14 11:42:57;;;;;;;1999.90;999.90;;;5.00;99.90;;;;;;5073757;28;20107;-75
2024/01/14 11:45:23;;;;;;;1999.90;999.90;;;5.00;99.90;;;;;;5042396;28;20036;-75
2024/01/14 11:47:50;;;;;;;1999.90;999.90;;;4.90;99.90;;;;;;5055588;28;20032;-75
2024/01/14 11:50:16;;;;;;;1999.90;999.90;;;4.70;99.90;;;;;;5073292;28;20493;-75
2024/01/14 11:52:50;;;;;;;1999.90;999.90;;;4.70;99.90;;;;;;5055508;28;20107;-75
2024/01/14 11:55:23;;;;;;;1999.90;999.90;;;4.60;99.90;;;;;;5073569;28;20021;-75
2024/01/14 11:57:49;;;;;;;1999.90;999.90;;;4.70;99.90;;;;;;5073615;28;20056;-75
2024/01/14 12:00:21;;;;;;;1999.90;999.90;;;4.70;99.90;;;;;;5073087;28;20157;-76
2024/01/14 12:02:47;;;;;;;1999.90;999.90;;;4.60;99.90;;;;;;5055041;28;20024;-76
2024/01/14 12:05:20;;;;;;;1999.90;999.90;;;4.60;99.90;;;;;;5073570;28;20136;-75
2024/01/14 12:07:46;;;;;;;;;;;4.70;99.90;;;;;;5073591;28;20465;-75